sensor_id;sensor_type;location;lat;lon;timestamp;temperature;humidity
13796;SHT30;40911;51.552;9.874;2023-01-09T00:08:46;7.09;94.91
13796;SHT30;40911;51.552;9.874;2023-01-09T00:11:08;7.14;94.65
13796;SHT30;40911;51.552;9.874;2023-01-09T00:13:30;7.20;94.56
13796;SHT30;40911;51.552;9.874;2023-01-09T00:15:51;7.34;94.47
13796;SHT30;40911;51.552;9.874;2023-01-09T00:18:13;7.39;94.40
13796;SHT30;40911;51.552;9.874;2023-01-09T00:20:35;7.37;94.18
13796;SHT30;40911;51.552;9.874;2023-01-09T00:22:56;7.30;94.50
13796;SHT30;40911;51.552;9.874;2023-01-09T00:25:19;7.34;94.30
13796;SHT30;40911;51.552;9.874;2023-01-09T00:27:42;7.30;94.35
13796;SHT30;40911;51.552;9.874;2023-01-09T00:30:04;7.31;94.24
13796;SHT30;40911;51.552;9.874;2023-01-09T00:32:27;7.45;93.88
13796;SHT30;40911;51.552;9.874;2023-01-09T00:34:49;7.34;94.09
13796;SHT30;40911;51.552;9.874;2023-01-09T00:37:11;7.47;93.96
13796;SHT30;40911;51.552;9.874;2023-01-09T00:39:32;7.61;93.14
13796;SHT30;40911;51.552;9.874;2023-01-09T00:41:56;7.51;93.56
13796;SHT30;40911;51.552;9.874;2023-01-09T00:44:21;7.47;93.84
13796;SHT30;40911;51.552;9.874;2023-01-09T00:46:47;7.51;93.62
13796;SHT30;40911;51.552;9.874;2023-01-09T00:49:11;7.48;93.78
13796;SHT30;40911;51.552;9.874;2023-01-09T00:51:33;7.54;93.42
13796;SHT30;40911;51.552;9.874;2023-01-09T00:53:55;7.52;93.45
13796;SHT30;40911;51.552;9.874;2023-01-09T00:56:17;7.48;93.89
13796;SHT30;40911;51.552;9.874;2023-01-09T00:58:41;7.45;93.96
13796;SHT30;40911;51.552;9.874;2023-01-09T01:01:03;7.44;94.09
13796;SHT30;40911;51.552;9.874;2023-01-09T01:03:24;7.44;94.16
13796;SHT30;40911;51.552;9.874;2023-01-09T01:05:46;7.42;94.40
13796;SHT30;40911;51.552;9.874;2023-01-09T01:08:25;7.45;94.49
13796;SHT30;40911;51.552;9.874;2023-01-09T01:10:47;7.42;94.76
13796;SHT30;40911;51.552;9.874;2023-01-09T01:13:09;7.39;94.91
13796;SHT30;40911;51.552;9.874;2023-01-09T01:15:31;7.39;95.31
13796;SHT30;40911;51.552;9.874;2023-01-09T01:17:54;7.34;95.48
13796;SHT30;40911;51.552;9.874;2023-01-09T01:20:16;7.31;95.73
13796;SHT30;40911;51.552;9.874;2023-01-09T01:22:38;7.30;95.94
13796;SHT30;40911;51.552;9.874;2023-01-09T01:25:01;7.31;96.03
13796;SHT30;40911;51.552;9.874;2023-01-09T01:27:23;7.31;96.27
13796;SHT30;40911;51.552;9.874;2023-01-09T01:29:45;7.30;96.47
13796;SHT30;40911;51.552;9.874;2023-01-09T01:32:07;7.30;96.31
13796;SHT30;40911;51.552;9.874;2023-01-09T01:34:29;7.30;96.24
13796;SHT30;40911;51.552;9.874;2023-01-09T01:36:51;7.28;96.39
13796;SHT30;40911;51.552;9.874;2023-01-09T01:39:12;7.30;96.51
13796;SHT30;40911;51.552;9.874;2023-01-09T01:41:34;7.27;96.55
13796;SHT30;40911;51.552;9.874;2023-01-09T01:43:57;7.24;96.74
13796;SHT30;40911;51.552;9.874;2023-01-09T01:46:19;7.21;96.82
13796;SHT30;40911;51.552;9.874;2023-01-09T01:48:42;7.21;97.20
13796;SHT30;40911;51.552;9.874;2023-01-09T01:51:05;7.18;97.43
13796;SHT30;40911;51.552;9.874;2023-01-09T01:53:32;7.13;97.49
13796;SHT30;40911;51.552;9.874;2023-01-09T01:56:03;7.14;97.46
13796;SHT30;40911;51.552;9.874;2023-01-09T01:58:26;7.13;97.68
13796;SHT30;40911;51.552;9.874;2023-01-09T02:00:48;7.11;97.86
13796;SHT30;40911;51.552;9.874;2023-01-09T02:03:11;7.11;97.87
13796;SHT30;40911;51.552;9.874;2023-01-09T02:05:36;7.09;97.90
13796;SHT30;40911;51.552;9.874;2023-01-09T02:07:59;7.11;97.94
13796;SHT30;40911;51.552;9.874;2023-01-09T02:10:21;7.11;98.01
13796;SHT30;40911;51.552;9.874;2023-01-09T02:12:43;7.06;98.11
13796;SHT30;40911;51.552;9.874;2023-01-09T02:15:08;7.10;98.43
13796;SHT30;40911;51.552;9.874;2023-01-09T02:18:07;7.06;98.38
13796;SHT30;40911;51.552;9.874;2023-01-09T02:20:42;7.07;98.60
13796;SHT30;40911;51.552;9.874;2023-01-09T02:23:33;7.07;98.57
13796;SHT30;40911;51.552;9.874;2023-01-09T02:26:18;7.04;98.56
13796;SHT30;40911;51.552;9.874;2023-01-09T02:28:57;7.03;98.66
13796;SHT30;40911;51.552;9.874;2023-01-09T02:31:30;6.96;98.92
13796;SHT30;40911;51.552;9.874;2023-01-09T02:33:58;6.97;99.27
13796;SHT30;40911;51.552;9.874;2023-01-09T02:36:28;6.97;99.07
13796;SHT30;40911;51.552;9.874;2023-01-09T02:39:02;6.99;99.15
13796;SHT30;40911;51.552;9.874;2023-01-09T02:41:32;6.99;98.97
13796;SHT30;40911;51.552;9.874;2023-01-09T02:44:16;6.99;99.07
13796;SHT30;40911;51.552;9.874;2023-01-09T02:46:40;6.99;99.06
13796;SHT30;40911;51.552;9.874;2023-01-09T02:49:03;7.01;99.09
13796;SHT30;40911;51.552;9.874;2023-01-09T02:51:32;7.00;99.04
13796;SHT30;40911;51.552;9.874;2023-01-09T02:54:15;6.96;99.11
13796;SHT30;40911;51.552;9.874;2023-01-09T02:59:26;6.97;99.10
13796;SHT30;40911;51.552;9.874;2023-01-09T03:02:07;6.96;99.16
13796;SHT30;40911;51.552;9.874;2023-01-09T03:04:40;7.00;99.16
13796;SHT30;40911;51.552;9.874;2023-01-09T03:07:09;6.97;99.15
13796;SHT30;40911;51.552;9.874;2023-01-09T03:09:35;6.97;99.25
13796;SHT30;40911;51.552;9.874;2023-01-09T03:12:01;6.95;99.20
13796;SHT30;40911;51.552;9.874;2023-01-09T03:14:25;6.95;99.20
13796;SHT30;40911;51.552;9.874;2023-01-09T03:16:49;6.93;99.14
13796;SHT30;40911;51.552;9.874;2023-01-09T03:19:18;6.92;99.06
13796;SHT30;40911;51.552;9.874;2023-01-09T03:21:41;6.95;98.92
13796;SHT30;40911;51.552;9.874;2023-01-09T03:24:03;6.99;98.82
13796;SHT30;40911;51.552;9.874;2023-01-09T03:26:26;6.99;98.80
13796;SHT30;40911;51.552;9.874;2023-01-09T03:28:48;6.99;98.82
13796;SHT30;40911;51.552;9.874;2023-01-09T03:31:10;6.96;98.83
13796;SHT30;40911;51.552;9.874;2023-01-09T03:33:32;7.00;98.80
13796;SHT30;40911;51.552;9.874;2023-01-09T03:35:55;6.96;98.84
13796;SHT30;40911;51.552;9.874;2023-01-09T03:38:16;6.97;98.80
13796;SHT30;40911;51.552;9.874;2023-01-09T03:40:39;6.99;98.68
13796;SHT30;40911;51.552;9.874;2023-01-09T03:43:02;6.97;98.76
13796;SHT30;40911;51.552;9.874;2023-01-09T03:45:24;6.97;98.80
13796;SHT30;40911;51.552;9.874;2023-01-09T03:47:45;6.96;98.72
13796;SHT30;40911;51.552;9.874;2023-01-09T03:50:08;6.97;98.77
13796;SHT30;40911;51.552;9.874;2023-01-09T03:52:31;6.95;99.06
13796;SHT30;40911;51.552;9.874;2023-01-09T03:54:53;6.95;98.97
13796;SHT30;40911;51.552;9.874;2023-01-09T03:57:14;6.93;98.95
13796;SHT30;40911;51.552;9.874;2023-01-09T03:59:36;6.93;98.95
13796;SHT30;40911;51.552;9.874;2023-01-09T04:01:58;6.96;98.97
13796;SHT30;40911;51.552;9.874;2023-01-09T04:04:20;6.96;99.01
13796;SHT30;40911;51.552;9.874;2023-01-09T04:06:42;6.93;99.11
13796;SHT30;40911;51.552;9.874;2023-01-09T04:09:05;6.90;99.26
13796;SHT30;40911;51.552;9.874;2023-01-09T04:11:26;6.93;99.33
13796;SHT30;40911;51.552;9.874;2023-01-09T04:13:48;6.93;99.26
13796;SHT30;40911;51.552;9.874;2023-01-09T04:16:09;6.92;99.19
13796;SHT30;40911;51.552;9.874;2023-01-09T04:18:31;6.93;99.16
13796;SHT30;40911;51.552;9.874;2023-01-09T04:20:53;6.93;99.17
13796;SHT30;40911;51.552;9.874;2023-01-09T04:23:14;6.92;99.14
13796;SHT30;40911;51.552;9.874;2023-01-09T04:25:37;6.90;99.12
13796;SHT30;40911;51.552;9.874;2023-01-09T04:27:59;6.88;99.17
13796;SHT30;40911;51.552;9.874;2023-01-09T04:30:20;6.83;99.18
13796;SHT30;40911;51.552;9.874;2023-01-09T04:32:42;6.83;99.24
13796;SHT30;40911;51.552;9.874;2023-01-09T04:35:05;6.86;99.10
13796;SHT30;40911;51.552;9.874;2023-01-09T04:37:27;6.89;98.93
13796;SHT30;40911;51.552;9.874;2023-01-09T04:39:48;6.93;98.84
13796;SHT30;40911;51.552;9.874;2023-01-09T04:42:12;7.18;97.68
13796;SHT30;40911;51.552;9.874;2023-01-09T04:44:34;7.17;97.51
13796;SHT30;40911;51.552;9.874;2023-01-09T04:46:56;7.26;97.22
13796;SHT30;40911;51.552;9.874;2023-01-09T04:49:19;7.26;97.36
13796;SHT30;40911;51.552;9.874;2023-01-09T04:51:40;7.28;97.32
13796;SHT30;40911;51.552;9.874;2023-01-09T04:54:02;7.24;97.55
13796;SHT30;40911;51.552;9.874;2023-01-09T04:56:24;7.32;96.91
13796;SHT30;40911;51.552;9.874;2023-01-09T04:58:47;7.30;97.12
13796;SHT30;40911;51.552;9.874;2023-01-09T05:01:08;7.37;96.38
13796;SHT30;40911;51.552;9.874;2023-01-09T05:03:30;7.31;96.60
13796;SHT30;40911;51.552;9.874;2023-01-09T05:05:52;7.30;96.40
13796;SHT30;40911;51.552;9.874;2023-01-09T05:08:13;7.42;95.97
13796;SHT30;40911;51.552;9.874;2023-01-09T05:10:35;7.34;96.10
13796;SHT30;40911;51.552;9.874;2023-01-09T05:12:56;7.31;96.04
13796;SHT30;40911;51.552;9.874;2023-01-09T05:15:20;7.30;95.70
13796;SHT30;40911;51.552;9.874;2023-01-09T05:17:42;7.27;95.90
13796;SHT30;40911;51.552;9.874;2023-01-09T05:20:04;7.23;95.67
13796;SHT30;40911;51.552;9.874;2023-01-09T05:22:25;7.23;95.33
13796;SHT30;40911;51.552;9.874;2023-01-09T05:24:47;7.24;95.12
13796;SHT30;40911;51.552;9.874;2023-01-09T05:27:09;7.17;94.90
13796;SHT30;40911;51.552;9.874;2023-01-09T05:29:30;7.21;94.24
13796;SHT30;40911;51.552;9.874;2023-01-09T05:31:53;7.16;94.22
13796;SHT30;40911;51.552;9.874;2023-01-09T05:34:15;7.14;93.88
13796;SHT30;40911;51.552;9.874;2023-01-09T05:36:37;7.07;94.17
13796;SHT30;40911;51.552;9.874;2023-01-09T05:38:58;7.00;94.41
13796;SHT30;40911;51.552;9.874;2023-01-09T05:41:21;6.96;93.87
13796;SHT30;40911;51.552;9.874;2023-01-09T05:43:43;7.03;93.11
13796;SHT30;40911;51.552;9.874;2023-01-09T05:46:05;6.96;92.44
13796;SHT30;40911;51.552;9.874;2023-01-09T05:48:27;6.90;92.74
13796;SHT30;40911;51.552;9.874;2023-01-09T05:50:49;6.82;93.16
13796;SHT30;40911;51.552;9.874;2023-01-09T05:53:11;6.85;92.50
13796;SHT30;40911;51.552;9.874;2023-01-09T05:55:32;6.79;92.81
13796;SHT30;40911;51.552;9.874;2023-01-09T05:57:54;6.85;92.23
13796;SHT30;40911;51.552;9.874;2023-01-09T06:00:17;6.80;92.19
13796;SHT30;40911;51.552;9.874;2023-01-09T06:02:38;6.88;91.53
13796;SHT30;40911;51.552;9.874;2023-01-09T06:05:02;6.80;92.20
13796;SHT30;40911;51.552;9.874;2023-01-09T06:07:23;6.83;91.88
13796;SHT30;40911;51.552;9.874;2023-01-09T06:09:45;6.76;91.96
13796;SHT30;40911;51.552;9.874;2023-01-09T06:12:07;6.73;92.13
13796;SHT30;40911;51.552;9.874;2023-01-09T06:14:28;6.78;91.95
13796;SHT30;40911;51.552;9.874;2023-01-09T06:16:50;6.76;92.34
13796;SHT30;40911;51.552;9.874;2023-01-09T06:19:12;6.73;92.37
